createdAt,value
2022-08-31T00:01:07.621Z,7.8
2022-08-31T00:02:16.121Z,7.8
2022-08-31T00:03:24.310Z,7.8
2022-08-31T00:04:32.932Z,7.2
2022-08-31T00:05:41.171Z,7.2
2022-08-31T00:06:49.496Z,7.2
2022-08-31T00:07:58.042Z,7.6
2022-08-31T00:09:06.407Z,7.6
2022-08-31T00:10:14.771Z,7.6
2022-08-31T00:11:23.260Z,7.1
2022-08-31T00:12:31.596Z,7.1
2022-08-31T00:13:39.953Z,7.1
2022-08-31T00:14:48.503Z,7.4
2022-08-31T00:15:56.829Z,7.4
2022-08-31T00:17:05.163Z,7.4
2022-08-31T00:18:13.750Z,6.9
2022-08-31T00:19:22.079Z,6.9
2022-08-31T00:20:32.936Z,6.9
2022-08-31T00:21:38.994Z,7.9
2022-08-31T00:22:47.311Z,7.9
2022-08-31T00:23:55.639Z,7.9
2022-08-31T00:25:04.184Z,7.7
2022-08-31T00:26:12.523Z,7.7
2022-08-31T00:27:20.857Z,7.7
2022-08-31T00:28:29.421Z,7.3
2022-08-31T00:29:37.762Z,7.3
2022-08-31T00:30:46.092Z,7.3
2022-08-31T00:31:54.662Z,8.1
2022-08-31T00:33:02.972Z,8.1
2022-08-31T00:34:11.314Z,8.1
2022-08-31T00:35:19.841Z,7.4
2022-08-31T00:36:28.219Z,7.4
2022-08-31T00:37:36.552Z,7.4
2022-08-31T00:38:45.115Z,7.6
2022-08-31T00:39:53.448Z,7.6
2022-08-31T00:41:01.786Z,7.6
2022-08-31T00:42:10.321Z,7.7
2022-08-31T00:43:18.847Z,7.7
2022-08-31T00:44:26.992Z,7.7
2022-08-31T00:45:35.584Z,7.6
2022-08-31T00:46:43.874Z,7.6
2022-08-31T00:47:52.225Z,7.6
2022-08-31T00:49:00.784Z,7.5
2022-08-31T00:50:09.108Z,7.5
2022-08-31T00:51:18.498Z,7.5
2022-08-31T00:52:25.954Z,7.7
2022-08-31T00:53:34.306Z,7.7
2022-08-31T00:54:42.645Z,7.7
2022-08-31T00:55:51.194Z,8
2022-08-31T00:56:59.522Z,8
2022-08-31T00:58:07.856Z,8
2022-08-31T00:59:16.403Z,7.6
2022-08-31T01:00:24.724Z,7.6
2022-08-31T01:01:33.153Z,7.6
2022-08-31T01:02:41.618Z,8.6
2022-08-31T01:03:49.979Z,8.6
2022-08-31T01:04:58.328Z,8.6
2022-08-31T01:06:06.888Z,7.7
2022-08-31T01:07:15.226Z,7.7
2022-08-31T01:08:27.211Z,7.7
2022-08-31T01:09:32.117Z,8.3
2022-08-31T01:10:40.430Z,8.3
2022-08-31T01:11:48.760Z,8.3
2022-08-31T01:12:57.304Z,7.9
2022-08-31T01:14:05.629Z,7.9
2022-08-31T01:15:13.968Z,7.9
2022-08-31T01:16:22.554Z,7.9
2022-08-31T01:17:30.841Z,7.9
2022-08-31T01:18:39.178Z,7.9
2022-08-31T01:19:47.721Z,7.6
2022-08-31T01:20:56.051Z,7.6
2022-08-31T01:22:04.380Z,7.6
2022-08-31T01:23:12.941Z,7.5
2022-08-31T01:24:21.252Z,7.5
2022-08-31T01:25:32.594Z,7.5
2022-08-31T01:26:38.127Z,7.6
2022-08-31T01:27:46.460Z,7.6
2022-08-31T01:28:54.831Z,7.6
2022-08-31T01:30:03.367Z,7.8
2022-08-31T01:31:11.722Z,7.8
2022-08-31T01:32:20.025Z,7.8
2022-08-31T01:33:28.554Z,8.1
2022-08-31T01:34:36.902Z,8.1
2022-08-31T01:35:45.231Z,8.1
2022-08-31T01:36:53.782Z,8.4
2022-08-31T01:38:02.125Z,8.4
2022-08-31T01:39:10.473Z,8.4
2022-08-31T01:40:19.062Z,8.5
2022-08-31T01:41:27.355Z,8.5
2022-08-31T01:42:35.689Z,8.5
2022-08-31T01:43:44.233Z,8.3
2022-08-31T01:44:52.562Z,8.3
2022-08-31T01:46:00.886Z,8.3
2022-08-31T01:47:09.473Z,9.1
2022-08-31T01:48:17.767Z,9.1
2022-08-31T01:49:26.103Z,9.1
2022-08-31T01:50:34.636Z,9.3
2022-08-31T01:51:42.983Z,9.3
2022-08-31T01:52:51.304Z,9.3
2022-08-31T01:53:59.836Z,9
2022-08-31T01:55:08.171Z,9
2022-08-31T01:56:16.503Z,9
2022-08-31T01:57:33.382Z,8.5
2022-08-31T01:58:33.381Z,8.5
2022-08-31T01:59:41.724Z,8.5
2022-08-31T02:00:50.319Z,8.6
2022-08-31T02:01:58.684Z,8.6
2022-08-31T02:03:06.937Z,8.6
2022-08-31T02:04:15.498Z,8.8
2022-08-31T02:05:23.852Z,8.8
2022-08-31T02:06:32.183Z,8.8
2022-08-31T02:07:40.734Z,8.8
2022-08-31T02:08:49.057Z,8.8
2022-08-31T02:09:57.391Z,8.8
2022-08-31T02:11:05.939Z,9.2
2022-08-31T02:12:14.284Z,9.2
2022-08-31T02:13:22.616Z,9.2
2022-08-31T02:14:31.166Z,8.4
2022-08-31T02:15:39.497Z,8.4
2022-08-31T02:16:47.848Z,8.4
2022-08-31T02:17:56.398Z,8.5
2022-08-31T02:19:04.744Z,8.5
2022-08-31T02:20:13.063Z,8.5
2022-08-31T02:21:21.592Z,8.3
2022-08-31T02:22:29.948Z,8.3
2022-08-31T02:23:38.304Z,8.3
2022-08-31T02:24:46.851Z,8.5
2022-08-31T02:25:55.175Z,8.5
2022-08-31T02:27:03.538Z,8.5
2022-08-31T02:28:12.053Z,8.8
2022-08-31T02:29:20.404Z,8.8
2022-08-31T02:30:28.739Z,8.8
2022-08-31T02:31:37.371Z,8.9
2022-08-31T02:32:45.606Z,8.9
2022-08-31T02:33:53.951Z,8.9
2022-08-31T02:35:02.475Z,8.7
2022-08-31T02:36:10.800Z,8.7
2022-08-31T02:37:19.164Z,8.7
2022-08-31T02:38:27.696Z,9
2022-08-31T02:39:36.027Z,9
2022-08-31T02:40:44.410Z,9
2022-08-31T02:41:52.901Z,9.9
2022-08-31T02:43:01.236Z,9.9
2022-08-31T02:44:09.551Z,9.9
2022-08-31T02:45:18.088Z,9.1
2022-08-31T02:46:26.470Z,9.1
2022-08-31T02:47:34.785Z,9.1
2022-08-31T02:48:43.334Z,8.7
2022-08-31T02:49:51.679Z,8.7
2022-08-31T02:51:00.019Z,8.7
2022-08-31T02:52:08.575Z,8.7
2022-08-31T02:53:17.054Z,8.7
2022-08-31T02:54:25.217Z,8.7
2022-08-31T02:55:33.754Z,8.8
2022-08-31T02:56:42.086Z,8.8
2022-08-31T02:57:50.398Z,8.8
2022-08-31T02:58:58.947Z,9
2022-08-31T03:00:07.277Z,9
2022-08-31T03:01:15.661Z,9
2022-08-31T03:02:24.224Z,9.2
2022-08-31T03:03:32.486Z,9.2
2022-08-31T03:04:40.852Z,9.2
2022-08-31T03:05:49.390Z,9.2
2022-08-31T03:06:57.752Z,9.2
2022-08-31T03:08:06.100Z,9.2
2022-08-31T03:09:14.640Z,9.8
2022-08-31T03:10:22.968Z,9.8
2022-08-31T03:11:31.316Z,9.8
2022-08-31T03:12:39.853Z,9.4
2022-08-31T03:13:48.185Z,9.4
2022-08-31T03:14:56.537Z,9.4
2022-08-31T03:16:05.172Z,10.3
2022-08-31T03:17:13.418Z,10.3
2022-08-31T03:18:21.743Z,10.3
2022-08-31T03:19:30.298Z,9.6
2022-08-31T03:20:38.643Z,9.6
2022-08-31T03:21:47.281Z,9.6
2022-08-31T03:22:55.516Z,9.9
2022-08-31T03:24:03.850Z,9.9
2022-08-31T03:25:12.168Z,9.9
2022-08-31T03:26:20.724Z,9.7
2022-08-31T03:27:29.056Z,9.7
2022-08-31T03:28:37.409Z,9.7
2022-08-31T03:29:45.962Z,9.4
2022-08-31T03:30:54.348Z,9.4
2022-08-31T03:32:02.658Z,9.4
2022-08-31T03:33:11.208Z,9.9
2022-08-31T03:34:19.544Z,9.9
2022-08-31T03:35:27.873Z,9.9
2022-08-31T03:36:36.430Z,9.5
2022-08-31T03:37:44.775Z,9.5
2022-08-31T03:38:53.106Z,9.5
2022-08-31T03:40:01.694Z,9.7
2022-08-31T03:41:10.012Z,9.7
2022-08-31T03:42:18.357Z,9.7
2022-08-31T03:43:26.913Z,9.7
2022-08-31T03:44:35.255Z,9.7
2022-08-31T03:45:43.602Z,9.7
2022-08-31T03:46:52.165Z,10.5
2022-08-31T03:48:00.495Z,10.5
2022-08-31T03:49:08.839Z,10.5
2022-08-31T03:50:17.366Z,9.8
2022-08-31T03:51:25.711Z,9.8
2022-08-31T03:52:34.037Z,9.8
2022-08-31T03:53:42.581Z,10.2
2022-08-31T03:54:50.918Z,10.2
2022-08-31T03:55:59.255Z,10.2
2022-08-31T03:57:07.791Z,10
2022-08-31T03:58:16.125Z,10
2022-08-31T03:59:24.460Z,10
2022-08-31T04:00:33.027Z,9.8
2022-08-31T04:01:41.416Z,9.8
2022-08-31T04:02:49.730Z,9.8
2022-08-31T04:03:58.228Z,10
2022-08-31T04:05:06.566Z,10
2022-08-31T04:06:14.934Z,10
2022-08-31T04:07:23.450Z,10
2022-08-31T04:08:31.794Z,10
2022-08-31T04:09:40.138Z,10
2022-08-31T04:10:48.672Z,10.2
2022-08-31T04:11:56.994Z,10.2
2022-08-31T04:13:05.337Z,10.2
2022-08-31T04:14:14.944Z,10.5
2022-08-31T04:15:22.221Z,10.5
2022-08-31T04:16:30.570Z,10.5
2022-08-31T04:17:39.089Z,10.8
2022-08-31T04:18:47.419Z,10.8
2022-08-31T04:19:55.761Z,10.8
2022-08-31T04:21:04.302Z,11
2022-08-31T04:22:12.642Z,11
2022-08-31T04:23:21.037Z,11
2022-08-31T04:24:29.595Z,10.8
2022-08-31T04:25:37.927Z,10.8
2022-08-31T04:26:46.270Z,10.8
2022-08-31T04:27:54.810Z,10.7
2022-08-31T04:29:03.142Z,10.7
2022-08-31T04:30:11.487Z,10.7
2022-08-31T04:31:20.081Z,10.6
2022-08-31T04:32:28.357Z,10.6
2022-08-31T04:33:36.699Z,10.6
2022-08-31T04:34:45.250Z,10.9
2022-08-31T04:35:53.603Z,10.9
2022-08-31T04:37:01.958Z,10.9
2022-08-31T04:38:10.503Z,10.7
2022-08-31T04:39:18.820Z,10.7
2022-08-31T04:40:27.164Z,10.7
2022-08-31T04:41:35.680Z,11
2022-08-31T04:42:43.991Z,11
2022-08-31T04:43:52.307Z,11
2022-08-31T04:45:00.845Z,10.8
2022-08-31T04:46:09.217Z,10.8
2022-08-31T04:47:17.482Z,10.8
2022-08-31T04:48:26.007Z,11.6
2022-08-31T04:49:34.318Z,11.6
2022-08-31T04:50:43.223Z,11.6
2022-08-31T04:51:51.185Z,11.5
2022-08-31T04:53:03.607Z,11.5
2022-08-31T04:54:07.840Z,11.5
2022-08-31T04:55:16.374Z,11.6
2022-08-31T04:56:24.742Z,11.6
2022-08-31T04:57:33.071Z,11.6
2022-08-31T04:58:41.619Z,10.8
2022-08-31T04:59:49.964Z,10.8
2022-08-31T05:00:58.338Z,10.8
2022-08-31T05:02:06.974Z,11.4
2022-08-31T05:03:15.200Z,11.4
2022-08-31T05:04:23.538Z,11.4
2022-08-31T05:05:32.109Z,11.1
2022-08-31T05:06:40.454Z,11.1
2022-08-31T05:07:48.798Z,11.1
2022-08-31T05:08:57.328Z,11.6
2022-08-31T05:10:05.649Z,11.6
2022-08-31T05:11:13.995Z,11.6
2022-08-31T05:12:22.545Z,11.1
2022-08-31T05:13:30.861Z,11.1
2022-08-31T05:14:39.176Z,11.1
2022-08-31T05:15:47.746Z,11.2
2022-08-31T05:16:56.059Z,11.2
2022-08-31T05:18:04.361Z,11.2
2022-08-31T05:19:12.898Z,11.2
2022-08-31T05:20:21.224Z,11.2
2022-08-31T05:21:29.553Z,11.2
2022-08-31T05:22:38.070Z,11.7
2022-08-31T05:23:46.391Z,11.7
2022-08-31T05:24:54.703Z,11.7
2022-08-31T05:26:03.248Z,11.4
2022-08-31T05:27:11.569Z,11.4
2022-08-31T05:28:19.907Z,11.4
2022-08-31T05:29:28.431Z,11.2
2022-08-31T05:30:36.836Z,11.2
2022-08-31T05:31:48.126Z,11.2
2022-08-31T05:32:53.611Z,11.6
2022-08-31T05:34:01.931Z,11.6
2022-08-31T05:35:10.245Z,11.6
2022-08-31T05:36:18.787Z,11.5
2022-08-31T05:37:27.111Z,11.5
2022-08-31T05:38:35.601Z,11.5
2022-08-31T05:39:43.949Z,12.2
2022-08-31T05:40:52.273Z,12.2
2022-08-31T05:42:00.597Z,12.2
2022-08-31T05:43:09.117Z,12
2022-08-31T05:44:17.448Z,12
2022-08-31T05:45:25.776Z,12
2022-08-31T05:46:34.332Z,12.5
2022-08-31T05:47:42.620Z,12.5
2022-08-31T05:48:50.935Z,12.5
2022-08-31T05:49:59.469Z,13.4
2022-08-31T05:51:07.806Z,13.4
2022-08-31T05:52:16.116Z,13.4
2022-08-31T05:53:24.638Z,12.5
2022-08-31T05:54:32.955Z,12.5
2022-08-31T05:55:41.277Z,12.5
2022-08-31T05:56:49.808Z,12.4
2022-08-31T05:57:58.123Z,12.4
2022-08-31T05:59:06.443Z,12.4
2022-08-31T06:00:14.981Z,12.9
2022-08-31T06:01:23.355Z,12.9
2022-08-31T06:02:31.628Z,12.9
2022-08-31T06:03:40.159Z,14
2022-08-31T06:04:48.502Z,14
2022-08-31T06:05:56.808Z,14
2022-08-31T06:07:05.336Z,14.7
2022-08-31T06:08:15.370Z,14.7
2022-08-31T06:09:21.969Z,14.7
2022-08-31T06:10:30.510Z,14.5
2022-08-31T06:11:38.832Z,14.5
2022-08-31T06:12:47.163Z,14.5
2022-08-31T06:13:55.691Z,15.6
2022-08-31T06:15:04.016Z,15.6
2022-08-31T06:16:12.402Z,15.6
2022-08-31T06:17:20.872Z,16
2022-08-31T06:18:29.217Z,16
2022-08-31T06:19:37.538Z,16
2022-08-31T06:20:46.084Z,15.3
2022-08-31T06:21:54.394Z,15.3
2022-08-31T06:23:02.706Z,15.3
2022-08-31T06:24:11.247Z,16.6
2022-08-31T06:25:19.577Z,16.6
2022-08-31T06:26:27.899Z,16.6
2022-08-31T06:27:36.429Z,16
2022-08-31T06:28:44.753Z,16
2022-08-31T06:29:53.067Z,16
2022-08-31T06:31:01.641Z,16.1
2022-08-31T06:32:09.919Z,16.1
2022-08-31T06:33:18.390Z,16.1
2022-08-31T06:34:26.802Z,16.4
2022-08-31T06:35:35.129Z,16.4
2022-08-31T06:36:43.448Z,16.4
2022-08-31T06:37:51.980Z,16.299999
2022-08-31T06:39:00.311Z,16.299999
2022-08-31T06:40:08.692Z,16.299999
2022-08-31T06:41:17.168Z,17.200001
2022-08-31T06:42:25.484Z,17.200001
2022-08-31T06:43:33.803Z,17.200001
2022-08-31T06:44:42.327Z,16.9
2022-08-31T06:45:50.737Z,16.9
2022-08-31T06:46:58.970Z,16.9
2022-08-31T06:48:07.488Z,16.6
2022-08-31T06:49:15.803Z,16.6
2022-08-31T06:50:24.153Z,16.6
2022-08-31T06:51:32.712Z,16.5
2022-08-31T06:52:41.030Z,16.5
2022-08-31T06:53:49.354Z,16.5
2022-08-31T06:54:57.886Z,15.4
2022-08-31T06:56:06.207Z,15.4
2022-08-31T06:57:14.539Z,15.4
2022-08-31T06:58:23.064Z,15.5
2022-08-31T06:59:31.380Z,15.5
2022-08-31T07:00:39.718Z,15.5
2022-08-31T07:01:48.341Z,17.4
2022-08-31T07:02:57.341Z,17.4
2022-08-31T07:04:04.937Z,17.4
2022-08-31T07:05:19.856Z,15.8
2022-08-31T07:06:21.807Z,15.8
2022-08-31T07:07:30.133Z,15.8
2022-08-31T07:08:38.678Z,16.799999
2022-08-31T07:09:46.999Z,16.799999
2022-08-31T07:10:55.356Z,16.799999
2022-08-31T07:12:03.869Z,17.1
2022-08-31T07:13:12.226Z,17.1
2022-08-31T07:14:20.534Z,17.1
2022-08-31T07:15:29.077Z,17.700001
2022-08-31T07:16:37.455Z,17.700001
2022-08-31T07:17:45.739Z,17.700001
2022-08-31T07:18:54.242Z,19.6
2022-08-31T07:20:02.573Z,19.6
2022-08-31T07:21:10.899Z,19.6
2022-08-31T07:22:19.436Z,20.1
2022-08-31T07:23:27.754Z,20.1
2022-08-31T07:24:36.084Z,20.1
2022-08-31T07:25:44.624Z,19.799999
2022-08-31T07:26:52.949Z,19.799999
2022-08-31T07:28:01.271Z,19.799999
2022-08-31T07:29:09.792Z,20.200001
2022-08-31T07:30:18.119Z,20.200001
2022-08-31T07:31:26.537Z,20.200001
2022-08-31T07:32:34.984Z,20
2022-08-31T07:33:43.313Z,20
2022-08-31T07:34:57.504Z,20
2022-08-31T07:36:00.172Z,19.9
2022-08-31T07:37:08.474Z,19.9
2022-08-31T07:38:16.796Z,19.9
2022-08-31T07:39:25.322Z,21.1
2022-08-31T07:40:33.695Z,21.1
2022-08-31T07:41:41.986Z,21.1
2022-08-31T07:42:50.517Z,21.200001
2022-08-31T07:43:58.850Z,21.200001
2022-08-31T07:45:07.178Z,21.200001
2022-08-31T07:46:15.774Z,23
2022-08-31T07:47:24.020Z,23
2022-08-31T07:48:32.359Z,23
2022-08-31T07:49:40.896Z,24.1
2022-08-31T07:50:49.266Z,24.1
2022-08-31T07:51:57.554Z,24.1
2022-08-31T07:53:06.084Z,24.299999
2022-08-31T07:54:14.407Z,24.299999
2022-08-31T07:55:22.753Z,24.299999
2022-08-31T07:56:34.604Z,24.1
2022-08-31T07:57:39.615Z,24.1
2022-08-31T07:58:47.940Z,24.1
2022-08-31T07:59:57.212Z,22.700001
2022-08-31T08:01:05.548Z,22.700001
2022-08-31T08:02:17.152Z,22.700001
2022-08-31T08:03:22.621Z,22.9
2022-08-31T08:04:30.721Z,22.9
2022-08-31T08:05:39.053Z,22.9
2022-08-31T08:06:47.584Z,22.299999
2022-08-31T08:07:55.900Z,22.299999
2022-08-31T08:09:21.844Z,22.299999
2022-08-31T08:10:12.743Z,21.200001
2022-08-31T08:11:21.076Z,21.200001
2022-08-31T08:12:29.395Z,21.200001
2022-08-31T08:13:37.926Z,21
2022-08-31T08:14:46.255Z,21
2022-08-31T08:15:54.629Z,21
2022-08-31T08:17:03.131Z,20.9
2022-08-31T08:18:11.465Z,20.9
2022-08-31T08:19:19.777Z,20.9
2022-08-31T08:20:34.602Z,20.4
2022-08-31T08:21:36.624Z,20.4
2022-08-31T08:22:54.392Z,20.4
2022-08-31T08:23:53.488Z,19.200001
2022-08-31T08:25:01.846Z,19.200001
2022-08-31T08:26:14.088Z,19.200001
2022-08-31T08:27:18.737Z,19.700001
2022-08-31T08:28:41.520Z,19.700001
2022-08-31T08:29:35.391Z,19.700001
2022-08-31T08:30:43.944Z,19.1
2022-08-31T08:31:52.355Z,19.1
2022-08-31T08:33:00.576Z,19.1
2022-08-31T08:34:09.108Z,19.1
2022-08-31T08:35:17.435Z,19.1
2022-08-31T08:36:25.753Z,19.1
2022-08-31T08:37:54.697Z,19.200001
2022-08-31T08:38:42.604Z,19.200001
2022-08-31T08:39:50.947Z,19.200001
2022-08-31T08:40:59.471Z,19
2022-08-31T08:42:07.805Z,19
2022-08-31T08:43:16.150Z,19
2022-08-31T08:44:24.692Z,17.700001
2022-08-31T08:45:33.120Z,17.700001
2022-08-31T08:46:41.391Z,17.700001
2022-08-31T08:47:49.895Z,18.4
2022-08-31T08:48:58.227Z,18.4
2022-08-31T08:50:06.582Z,18.4
2022-08-31T08:51:15.122Z,18.799999
2022-08-31T08:52:23.423Z,18.799999
2022-08-31T08:53:31.742Z,18.799999
2022-08-31T08:54:40.273Z,18.5
2022-08-31T08:55:48.607Z,18.5
2022-08-31T08:56:56.912Z,18.5
2022-08-31T08:58:05.434Z,19.299999
2022-08-31T08:59:17.270Z,19.299999
2022-08-31T09:00:22.078Z,19.299999
2022-08-31T09:01:30.747Z,19.700001
2022-08-31T09:02:38.967Z,19.700001
2022-08-31T09:03:47.271Z,19.700001
2022-08-31T09:04:55.813Z,20
2022-08-31T09:06:04.136Z,20
2022-08-31T09:07:12.445Z,20
2022-08-31T09:08:20.971Z,19.6
2022-08-31T09:09:29.299Z,19.6
2022-08-31T09:10:37.624Z,19.6
2022-08-31T09:11:46.163Z,19.799999
2022-08-31T09:12:54.475Z,19.799999
2022-08-31T09:14:02.802Z,19.799999
2022-08-31T09:15:11.349Z,21.4
2022-08-31T09:16:19.708Z,21.4
2022-08-31T09:17:27.982Z,21.4
2022-08-31T09:18:36.506Z,23.299999
2022-08-31T09:19:44.844Z,23.299999
2022-08-31T09:20:53.163Z,23.299999
2022-08-31T09:22:01.690Z,23
2022-08-31T09:23:10.022Z,23
2022-08-31T09:24:18.333Z,23
2022-08-31T09:25:26.867Z,25
2022-08-31T09:26:35.192Z,25
2022-08-31T09:27:43.510Z,25
2022-08-31T09:28:52.032Z,23.700001
2022-08-31T09:30:00.460Z,23.700001
2022-08-31T09:31:08.753Z,23.700001
2022-08-31T09:32:17.209Z,24
2022-08-31T09:33:25.533Z,24
2022-08-31T09:34:33.863Z,24
2022-08-31T09:35:42.384Z,23.4
2022-08-31T09:36:50.698Z,23.4
2022-08-31T09:37:59.032Z,23.4
2022-08-31T09:39:07.575Z,15.8
2022-08-31T09:40:15.977Z,15.8
2022-08-31T09:41:24.244Z,15.8
2022-08-31T09:42:33.713Z,15
2022-08-31T09:43:41.359Z,15
2022-08-31T09:44:49.419Z,15
2022-08-31T09:45:57.980Z,14.7
2022-08-31T09:47:06.279Z,14.7
2022-08-31T09:48:14.592Z,14.7
2022-08-31T09:49:23.124Z,15
2022-08-31T09:50:31.607Z,15
2022-08-31T09:51:39.754Z,15
2022-08-31T09:52:48.280Z,15.1
2022-08-31T09:53:56.597Z,15.1
2022-08-31T09:55:04.938Z,15.1
2022-08-31T09:56:13.461Z,12.1
2022-08-31T09:57:21.783Z,12.1
2022-08-31T09:58:30.104Z,12.1
2022-08-31T09:59:38.851Z,11.4
2022-08-31T10:00:46.957Z,11.4
2022-08-31T10:01:55.292Z,11.4
2022-08-31T10:03:06.597Z,9.6
2022-08-31T10:04:12.129Z,9.6
2022-08-31T10:05:20.528Z,9.6
2022-08-31T10:06:29.018Z,7.9
2022-08-31T10:07:37.335Z,7.9
2022-08-31T10:08:45.658Z,7.9
2022-08-31T10:09:57.685Z,7.5
2022-08-31T10:11:02.527Z,7.5
2022-08-31T10:12:10.845Z,7.5
2022-08-31T10:13:19.528Z,6.9
2022-08-31T10:14:27.706Z,6.9
2022-08-31T10:15:36.088Z,6.9
2022-08-31T10:16:44.568Z,7.3
2022-08-31T10:17:52.906Z,7.3
2022-08-31T10:19:01.223Z,7.3
2022-08-31T10:20:09.756Z,7.2
2022-08-31T10:21:18.074Z,7.2
2022-08-31T10:22:26.400Z,7.2
2022-08-31T10:23:34.922Z,8.2
2022-08-31T10:24:43.246Z,8.2
2022-08-31T10:25:51.583Z,8.2
2022-08-31T10:27:00.110Z,6.7
2022-08-31T10:28:08.435Z,6.7
2022-08-31T10:29:21.163Z,6.7
2022-08-31T10:30:25.285Z,6.3
2022-08-31T10:31:33.671Z,6.3
2022-08-31T10:32:41.950Z,6.3
2022-08-31T10:33:50.489Z,5.8
2022-08-31T10:34:58.823Z,5.8
2022-08-31T10:36:07.146Z,5.8
2022-08-31T10:37:15.668Z,5.5
2022-08-31T10:38:24.022Z,5.5
2022-08-31T10:39:32.463Z,5.5
2022-08-31T10:40:41.093Z,5.7
2022-08-31T10:41:49.377Z,5.7
2022-08-31T10:42:57.688Z,5.7
2022-08-31T10:44:06.227Z,5.2
2022-08-31T10:45:18.355Z,5.2
2022-08-31T10:46:22.921Z,5.2
2022-08-31T10:47:32.623Z,5.3
2022-08-31T10:48:39.762Z,5.3
2022-08-31T10:49:48.084Z,5.3
2022-08-31T10:50:56.639Z,6
2022-08-31T10:52:04.955Z,6
2022-08-31T10:53:13.318Z,6
2022-08-31T10:54:21.808Z,5.3
2022-08-31T10:55:30.128Z,5.3
2022-08-31T10:56:38.458Z,5.3
2022-08-31T10:57:46.983Z,5.3
2022-08-31T10:58:55.288Z,5.3
2022-08-31T11:00:03.619Z,5.3
2022-08-31T11:01:12.223Z,5.7
2022-08-31T11:02:20.470Z,5.7
2022-08-31T11:03:28.850Z,5.7
2022-08-31T11:04:37.397Z,5.5
2022-08-31T11:05:49.986Z,5.5
2022-08-31T11:06:53.969Z,5.5
2022-08-31T11:08:02.562Z,5.5
2022-08-31T11:09:10.819Z,5.5
2022-08-31T11:10:19.143Z,5.5
2022-08-31T11:11:27.692Z,5.1
2022-08-31T11:12:36.022Z,5.1
2022-08-31T11:13:48.716Z,5.1
2022-08-31T11:14:52.898Z,4.4
2022-08-31T11:16:01.255Z,4.4
2022-08-31T11:17:11.822Z,4.4
2022-08-31T11:18:18.071Z,3.7
2022-08-31T11:19:26.416Z,3.7
2022-08-31T11:20:34.761Z,3.7
2022-08-31T11:21:43.322Z,4.4
2022-08-31T11:22:51.657Z,4.4
2022-08-31T11:23:59.972Z,4.4
2022-08-31T11:25:08.520Z,3.6
2022-08-31T11:26:16.837Z,3.6
2022-08-31T11:27:25.159Z,3.6
2022-08-31T11:28:33.708Z,2.9
2022-08-31T11:29:42.041Z,2.9
2022-08-31T11:30:50.387Z,2.9
2022-08-31T11:31:58.889Z,3.5
2022-08-31T11:33:07.205Z,3.5
2022-08-31T11:34:16.895Z,3.5
2022-08-31T11:35:24.052Z,3
2022-08-31T11:36:32.367Z,3
2022-08-31T11:37:40.697Z,3
2022-08-31T11:38:49.238Z,3.2
2022-08-31T11:39:57.569Z,3.2
2022-08-31T11:41:05.906Z,3.2
2022-08-31T11:42:14.487Z,3.3
2022-08-31T11:43:22.812Z,3.3
2022-08-31T11:44:31.150Z,3.3
2022-08-31T11:45:39.726Z,3.2
2022-08-31T11:46:48.014Z,3.2
2022-08-31T11:47:56.331Z,3.2
2022-08-31T11:49:04.864Z,4.3
2022-08-31T11:50:13.201Z,4.3
2022-08-31T11:51:21.538Z,4.3
2022-08-31T11:52:30.063Z,3.4
2022-08-31T11:53:38.378Z,3.4
2022-08-31T11:54:46.736Z,3.4
2022-08-31T11:55:55.277Z,3.2
2022-08-31T11:57:03.588Z,3.2
2022-08-31T11:58:11.918Z,3.2
2022-08-31T11:59:20.461Z,3.2
2022-08-31T12:00:28.795Z,3.2
2022-08-31T12:01:37.114Z,3.2
2022-08-31T12:02:45.734Z,3.3
2022-08-31T12:03:53.975Z,3.3
2022-08-31T12:05:02.354Z,3.3
2022-08-31T12:06:10.853Z,3
2022-08-31T12:07:19.181Z,3
2022-08-31T12:08:27.524Z,3
2022-08-31T12:09:36.059Z,3.9
2022-08-31T12:10:44.393Z,3.9
2022-08-31T12:11:52.712Z,3.9
2022-08-31T12:13:01.230Z,3.2
2022-08-31T12:14:09.695Z,3.2
2022-08-31T12:15:18.045Z,3.2
2022-08-31T12:16:26.616Z,3
2022-08-31T12:17:34.904Z,3
2022-08-31T12:18:43.231Z,3
2022-08-31T12:19:51.768Z,3.3
2022-08-31T12:21:00.098Z,3.3
2022-08-31T12:22:08.446Z,3.3
2022-08-31T12:23:27.008Z,3
2022-08-31T12:24:25.296Z,3
2022-08-31T12:25:33.614Z,3
2022-08-31T12:26:45.236Z,3.4
2022-08-31T12:27:50.477Z,3.4
2022-08-31T12:28:58.846Z,3.4
2022-08-31T12:30:07.369Z,2.8
2022-08-31T12:31:15.765Z,2.8
2022-08-31T12:32:24.054Z,2.8
2022-08-31T12:33:32.572Z,2.8
2022-08-31T12:34:40.901Z,2.8
2022-08-31T12:35:49.233Z,2.8
2022-08-31T12:36:57.797Z,3
2022-08-31T12:38:06.102Z,3
2022-08-31T12:39:14.427Z,3
2022-08-31T12:40:23.014Z,2.6
2022-08-31T12:41:31.279Z,2.6
2022-08-31T12:42:39.606Z,2.6
2022-08-31T12:43:48.144Z,2.9
2022-08-31T12:44:56.466Z,2.9
2022-08-31T12:46:04.833Z,2.9
2022-08-31T12:47:13.343Z,2.9
2022-08-31T12:48:21.668Z,2.9
2022-08-31T12:49:30.078Z,2.9
2022-08-31T12:50:38.635Z,3.1
2022-08-31T12:51:46.972Z,3.1
2022-08-31T12:52:55.296Z,3.1
2022-08-31T12:54:03.826Z,3.2
2022-08-31T12:55:12.160Z,3.2
2022-08-31T12:56:20.478Z,3.2
2022-08-31T12:57:29.016Z,3.5
2022-08-31T12:58:37.325Z,3.5
2022-08-31T12:59:59.720Z,3.5
2022-08-31T13:00:54.200Z,3.2
2022-08-31T13:02:02.645Z,3.2
2022-08-31T13:03:10.975Z,3.2
2022-08-31T13:04:19.405Z,3.5
2022-08-31T13:05:27.730Z,3.5
2022-08-31T13:06:36.064Z,3.5
2022-08-31T13:07:44.591Z,3.6
2022-08-31T13:08:52.926Z,3.6
2022-08-31T13:10:01.248Z,3.6
2022-08-31T13:11:09.774Z,3.6
2022-08-31T13:12:18.097Z,3.6
2022-08-31T13:13:26.411Z,3.6
2022-08-31T13:14:34.961Z,3.8
2022-08-31T13:15:43.276Z,3.8
2022-08-31T13:16:51.623Z,3.8
2022-08-31T13:18:00.154Z,3.7
2022-08-31T13:19:08.485Z,3.7
2022-08-31T13:20:16.804Z,3.7
2022-08-31T13:21:25.345Z,3.3
2022-08-31T13:22:33.673Z,3.3
2022-08-31T13:23:42.005Z,3.3
2022-08-31T13:24:53.925Z,3.1
2022-08-31T13:25:58.853Z,3.1
2022-08-31T13:27:07.197Z,3.1
2022-08-31T13:28:15.733Z,3
2022-08-31T13:29:24.066Z,3
2022-08-31T13:30:32.388Z,3
2022-08-31T13:31:40.947Z,2.9
2022-08-31T13:32:49.243Z,2.9
2022-08-31T13:33:57.584Z,2.9
2022-08-31T13:35:06.123Z,2.9
2022-08-31T13:36:14.450Z,2.9
2022-08-31T13:37:22.779Z,2.9
2022-08-31T13:38:31.323Z,2.8
2022-08-31T13:39:39.641Z,2.8
2022-08-31T13:40:47.993Z,2.8
2022-08-31T13:41:56.502Z,2.9
2022-08-31T13:43:04.875Z,2.9
2022-08-31T13:44:13.205Z,2.9
2022-08-31T13:45:21.717Z,2.6
2022-08-31T13:46:41.780Z,2.6
2022-08-31T13:47:48.795Z,2.6
2022-08-31T13:48:47.048Z,2.6
2022-08-31T13:49:55.367Z,2.6
2022-08-31T13:51:03.696Z,2.6
2022-08-31T13:52:12.229Z,2.8
2022-08-31T13:53:26.581Z,2.8
2022-08-31T13:54:28.872Z,2.8
2022-08-31T13:55:37.428Z,2.3
2022-08-31T13:56:45.732Z,2.3
2022-08-31T13:57:54.055Z,2.3
2022-08-31T13:59:02.593Z,3
2022-08-31T14:00:10.933Z,3
2022-08-31T14:01:19.334Z,3
2022-08-31T14:02:27.849Z,3.1
2022-08-31T14:03:36.122Z,3.1
2022-08-31T14:04:44.555Z,3.1
2022-08-31T14:05:53.015Z,3
2022-08-31T14:07:01.354Z,3
2022-08-31T14:08:09.679Z,3
2022-08-31T14:09:18.223Z,3.3
2022-08-31T14:10:26.554Z,3.3
2022-08-31T14:11:34.898Z,3.3
2022-08-31T14:12:43.445Z,3.6
2022-08-31T14:13:51.772Z,3.6
2022-08-31T14:15:00.090Z,3.6
2022-08-31T14:16:08.620Z,3.1
2022-08-31T14:17:17.056Z,3.1
2022-08-31T14:18:26.521Z,3.1
2022-08-31T14:19:33.848Z,2.8
2022-08-31T14:20:49.618Z,2.8
2022-08-31T14:21:50.490Z,2.8
2022-08-31T14:22:59.027Z,2.5
2022-08-31T14:24:07.372Z,2.5
2022-08-31T14:25:15.713Z,2.5
2022-08-31T14:26:24.250Z,2.8
2022-08-31T14:27:32.569Z,2.8
2022-08-31T14:28:40.908Z,2.8
2022-08-31T15:03:05.377Z,0
2022-08-31T15:04:13.692Z,0
2022-08-31T15:05:22.013Z,0
2022-08-31T15:06:30.560Z,2.5
2022-08-31T15:07:38.872Z,2.5
2022-08-31T15:08:47.199Z,2.5
2022-08-31T15:09:55.735Z,2.6
2022-08-31T15:11:04.064Z,2.6
2022-08-31T15:12:14.665Z,2.6
2022-08-31T15:13:20.917Z,2.8
2022-08-31T15:14:29.248Z,2.8
2022-08-31T15:15:37.567Z,2.8
2022-08-31T15:16:46.162Z,2.3
2022-08-31T15:17:54.449Z,2.3
2022-08-31T15:19:02.774Z,2.3
2022-08-31T15:20:11.309Z,2.1
2022-08-31T15:21:19.633Z,2.1
2022-08-31T15:22:27.955Z,2.1
2022-08-31T15:23:36.505Z,1.8
2022-08-31T15:24:45.040Z,1.8
2022-08-31T15:25:53.172Z,1.8
2022-08-31T15:27:01.701Z,2
2022-08-31T15:28:10.034Z,2
2022-08-31T15:29:18.351Z,2
2022-08-31T15:30:26.888Z,1.7
2022-08-31T15:31:35.255Z,1.7
2022-08-31T15:32:43.533Z,1.7
2022-08-31T15:33:52.065Z,2.1
2022-08-31T15:35:00.379Z,2.1
2022-08-31T15:36:08.704Z,2.1
2022-08-31T15:37:17.240Z,1.6
2022-08-31T15:38:25.575Z,1.6
2022-08-31T15:39:33.907Z,1.6
2022-08-31T15:40:42.463Z,2.1
2022-08-31T15:41:50.762Z,2.1
2022-08-31T15:42:59.088Z,2.1
2022-08-31T15:44:07.637Z,2.1
2022-08-31T15:45:15.972Z,2.1
2022-08-31T15:46:24.377Z,2.1
2022-08-31T15:47:32.828Z,2
2022-08-31T15:48:41.157Z,2
2022-08-31T15:49:49.496Z,2
2022-08-31T15:50:58.106Z,2
2022-08-31T15:52:06.600Z,2
2022-08-31T15:53:15.082Z,2
2022-08-31T15:54:23.775Z,1.6
2022-08-31T15:55:32.241Z,1.6
2022-08-31T15:56:40.716Z,1.6
2022-08-31T15:57:49.397Z,2.2
2022-08-31T15:58:57.879Z,2.2